ENZV/SVG METAR and TAF weather

Enter ICAO airport designator
Station Type Date Time Source
ENZV METAR 2021/09/16 21:50 UTC NOAA

ENZV 162150Z 19002KT CAVOK 14/12 Q1017


Station Type Date Time Source
ENZV Decoded METAR 2021/09/16 21:50 UTC NOAA

Stavanger / Sola, Norway (ENZV) 58-53N 005-38E 9M
Sep 16, 2021 - 05:50 PM EDT / 2021.09.16 2150 UTC
Wind: from the S (190 degrees) at 2 MPH (2 KT):0
Visibility: greater than 7 mile(s):0
Temperature: 57 F (14 C)
Dew Point: 53 F (12 C)
Relative Humidity: 87%
Pressure (altimeter): 30.03 in. Hg (1017 hPa)
ob: ENZV 162150Z 19002KT CAVOK 14/12 Q1017
cycle: 22

Station Type Date Time Source
ENZV TAF 2021/09/16 18:57 UTC NOAA

TAF ENZV 161700Z 1618/1718 VRB05KT CAVOK
BECMG 1709/1711 18010KT

Example: see airport list